Time;durP1;ratioP1;P1;durP2;ratioP2;P2;SDS_P1;SDS_P2;PMS_P1;PMS_P2;Temp;Humidity;BMP_temperature;BMP_pressure;BME280_temperature;BME280_humidity;BME280_pressure;Samples;Min_cycle;Max_cycle;Signal;HPM_P1;HPM_P2
2022/05/07 00:00:46;;;;;;;6.15;2.85;;;;;;;14.57;61.20;100986.78;4973480;28;20396;-72
2022/05/07 00:03:13;;;;;;;4.10;3.70;;;;;;;14.57;61.28;100988.69;4970957;28;20811;-72
2022/05/07 00:05:38;;;;;;;4.07;3.07;;;;;;;14.60;61.41;100985.44;4971977;28;20499;-73
2022/05/07 00:08:05;;;;;;;3.67;3.27;;;;;;;14.62;61.96;100986.03;4971905;28;20412;-73
2022/05/07 00:10:30;;;;;;;4.70;3.50;;;;;;;14.62;62.00;100986.81;4970123;28;20423;-72
2022/05/07 00:12:56;;;;;;;5.63;3.93;;;;;;;14.60;62.42;100989.00;4973016;28;20887;-72
2022/05/07 00:15:21;;;;;;;6.85;3.88;;;;;;;14.57;62.18;100988.69;4973291;28;20392;-73
2022/05/07 00:18:03;;;;;;;4.57;3.20;;;;;;;14.54;62.55;100990.03;4971733;28;20424;-73
2022/05/07 00:20:35;;;;;;;3.63;3.30;;;;;;;14.56;62.69;100993.31;4973122;28;20416;-73
2022/05/07 00:23:01;;;;;;;5.28;4.80;;;;;;;14.53;62.80;100991.09;4973385;28;20388;-73
2022/05/07 00:25:28;;;;;;;7.03;4.40;;;;;;;14.49;62.83;100993.53;4968906;28;20474;-73
2022/05/07 00:27:54;;;;;;;4.20;3.90;;;;;;;14.52;63.01;100994.94;4971280;28;20412;-73
2022/05/07 00:30:19;;;;;;;4.73;3.80;;;;;;;14.47;63.23;100987.50;4970814;28;20492;-72
2022/05/07 00:32:45;;;;;;;6.25;4.03;;;;;;;14.45;63.29;100997.88;4972693;28;20417;-73
2022/05/07 00:35:10;;;;;;;4.70;4.30;;;;;;;14.43;63.42;100993.72;4972784;28;20396;-72
2022/05/07 00:37:39;;;;;;;5.25;4.75;;;;;;;14.46;63.80;100999.50;4964921;28;20430;-73
2022/05/07 00:40:06;;;;;;;4.93;4.43;;;;;;;14.45;64.25;100997.03;4962612;28;20465;-73
2022/05/07 00:42:31;;;;;;;4.70;4.07;;;;;;;14.44;64.25;100987.19;4973086;28;20460;-73
2022/05/07 00:44:57;;;;;;;4.72;4.32;;;;;;;14.42;64.48;100979.25;4972005;28;20845;-73
2022/05/07 00:47:25;;;;;;;6.50;4.30;;;;;;;14.42;64.37;100981.19;4970952;28;20609;-73
2022/05/07 00:49:53;;;;;;;4.90;3.80;;;;;;;14.38;63.93;100978.16;4972738;28;20397;-73
2022/05/07 00:52:19;;;;;;;4.00;3.22;;;;;;;14.35;63.55;100980.56;4971358;28;20819;-73
2022/05/07 00:54:46;;;;;;;4.60;3.20;;;;;;;14.30;63.03;100980.47;4971383;28;20408;-73
2022/05/07 00:57:12;;;;;;;3.25;2.33;;;;;;;14.23;62.80;100974.41;4971315;28;20428;-73
2022/05/07 00:59:38;;;;;;;4.40;2.63;;;;;;;14.14;62.82;100974.03;4972538;28;20461;-73
2022/05/07 01:02:03;;;;;;;3.20;2.00;;;;;;;14.06;62.79;100969.06;4972595;28;20425;-73
2022/05/07 01:04:28;;;;;;;3.63;2.37;;;;;;;14.00;62.71;100970.88;4972658;28;20462;-73
2022/05/07 01:06:54;;;;;;;5.50;2.70;;;;;;;13.99;62.46;100982.06;4970305;28;20983;-73
2022/05/07 01:09:20;;;;;;;3.83;2.57;;;;;;;13.87;62.10;100979.44;4972152;28;20416;-73
2022/05/07 01:11:46;;;;;;;4.90;2.50;;;;;;;13.80;62.35;100972.53;4976700;28;20933;-73
2022/05/07 01:14:11;;;;;;;2.97;2.73;;;;;;;13.76;62.63;100971.41;4976807;28;20435;-73
2022/05/07 01:16:36;;;;;;;2.73;2.50;;;;;;;13.74;62.67;100974.38;4974902;28;20420;-73
2022/05/07 01:19:02;;;;;;;3.03;2.77;;;;;;;13.69;62.45;100977.06;4974511;28;20423;-73
2022/05/07 01:21:28;;;;;;;3.08;2.45;;;;;;;13.66;62.65;100972.13;4969592;28;20432;-73
2022/05/07 01:23:54;;;;;;;2.80;2.55;;;;;;;13.68;62.53;100969.13;4973689;28;20403;-72
2022/05/07 01:26:22;;;;;;;3.67;2.53;;;;;;;13.66;62.50;100965.84;4973936;28;20828;-73
2022/05/07 01:28:48;;;;;;;2.88;2.00;;;;;;;13.66;62.46;100972.13;4973444;28;20423;-72
2022/05/07 01:31:14;;;;;;;2.70;2.50;;;;;;;13.63;61.89;100966.34;4976212;28;20399;-72
2022/05/07 01:33:39;;;;;;;3.67;3.00;;;;;;;13.52;61.83;100968.94;4976014;28;20408;-72
2022/05/07 01:36:11;;;;;;;3.03;2.20;;;;;;;13.44;62.20;100966.63;4976163;28;20783;-72
2022/05/07 01:38:37;;;;;;;4.65;2.40;;;;;;;13.43;62.32;100972.34;4974274;28;20423;-72
2022/05/07 01:41:03;;;;;;;4.43;2.38;;;;;;;13.41;62.24;100969.84;4974848;28;20495;-73
2022/05/07 01:43:32;;;;;;;3.55;2.38;;;;;;;13.37;62.44;100971.41;4974290;28;20412;-73
2022/05/07 01:45:59;;;;;;;3.67;2.58;;;;;;;13.34;62.31;100971.09;4975980;28;21876;-73
2022/05/07 01:48:24;;;;;;;3.33;2.47;;;;;;;13.37;62.18;100976.06;4974362;28;20421;-72
2022/05/07 01:50:50;;;;;;;3.60;2.37;;;;;;;13.37;62.27;100974.16;4974605;28;20431;-73
2022/05/07 01:53:15;;;;;;;3.25;2.13;;;;;;;13.36;62.51;100974.41;4975894;28;20404;-73
2022/05/07 01:55:40;;;;;;;2.40;2.30;;;;;;;13.34;62.35;100971.94;4975877;28;20407;-73
2022/05/07 01:58:06;;;;;;;2.90;2.58;;;;;;;13.36;62.29;100980.69;4975228;28;20431;-73
2022/05/07 02:00:33;;;;;;;2.73;2.40;;;;;;;13.35;62.41;100979.03;4972885;28;20419;-73
2022/05/07 02:02:59;;;;;;;2.70;2.25;;;;;;;13.34;62.39;100980.09;4975986;28;20724;-73
2022/05/07 02:05:26;;;;;;;2.85;2.50;;;;;;;13.35;62.32;100972.75;4955026;28;21023;-72
2022/05/07 02:07:52;;;;;;;2.53;2.17;;;;;;;13.33;62.12;100970.28;4975456;28;20442;-73
2022/05/07 02:10:17;;;;;;;4.50;2.47;;;;;;;13.34;62.51;100971.09;4975638;28;20450;-72
2022/05/07 02:12:43;;;;;;;2.50;2.40;;;;;;;13.34;61.64;100971.09;4974192;28;20412;-72
2022/05/07 02:15:08;;;;;;;3.07;2.53;;;;;;;13.29;61.91;100974.59;4974142;28;20792;-72
2022/05/07 02:17:34;;;;;;;5.53;2.30;;;;;;;13.27;61.65;100965.84;4973979;28;20422;-72
2022/05/07 02:19:59;;;;;;;3.17;2.45;;;;;;;13.24;62.06;100969.06;4973703;28;20409;-73
2022/05/07 02:22:25;;;;;;;2.57;2.37;;;;;;;13.22;62.19;100971.22;4972154;28;20412;-72
2022/05/07 02:24:51;;;;;;;3.20;2.33;;;;;;;13.19;62.35;100979.88;4975213;28;20755;-73
2022/05/07 02:27:16;;;;;;;2.03;1.92;;;;;;;13.14;62.13;100979.78;4975211;28;20397;-73
2022/05/07 02:29:41;;;;;;;3.90;3.17;;;;;;;13.11;62.41;100980.28;4975049;28;20410;-72
2022/05/07 02:32:07;;;;;;;5.90;2.57;;;;;;;13.09;62.14;100982.44;4975043;28;20408;-73
2022/05/07 02:34:34;;;;;;;4.53;2.30;;;;;;;13.11;62.09;100976.72;4971927;28;20424;-72
2022/05/07 02:37:00;;;;;;;2.63;2.17;;;;;;;13.11;61.88;100982.19;4972109;28;20910;-72
2022/05/07 02:39:25;;;;;;;3.63;2.47;;;;;;;13.04;61.96;100976.88;4971345;28;20496;-72
2022/05/07 02:44:36;;;;;;;3.47;2.80;;;;;;;12.98;61.92;100975.97;4975129;28;20451;-73
2022/05/07 02:47:01;;;;;;;2.28;2.00;;;;;;;12.91;61.97;100974.50;4973281;28;20440;-73
2022/05/07 02:49:26;;;;;;;2.60;2.40;;;;;;;12.85;62.33;100975.47;4971883;28;20408;-73
2022/05/07 02:51:51;;;;;;;2.60;2.30;;;;;;;12.82;62.60;100982.25;4974554;28;20388;-72
2022/05/07 02:54:17;;;;;;;3.50;2.07;;;;;;;12.83;62.75;100983.06;4973506;28;20483;-73
2022/05/07 02:56:42;;;;;;;3.60;2.60;;;;;;;12.79;62.54;100985.47;4974665;28;20945;-72
2022/05/07 02:59:07;;;;;;;2.60;2.47;;;;;;;12.78;62.39;100981.09;4973336;28;20772;-72
2022/05/07 03:01:33;;;;;;;2.53;2.23;;;;;;;12.80;62.60;100986.28;4973517;28;20416;-73
2022/05/07 03:03:58;;;;;;;5.40;3.40;;;;;;;12.81;62.80;100982.50;4987485;28;20907;-73
2022/05/07 03:06:24;;;;;;;15.47;12.00;;;;;;;12.80;62.97;100984.41;4974619;28;20404;-73
2022/05/07 03:08:49;;;;;;;34.53;23.58;;;;;;;12.81;63.13;100985.22;4972427;28;20502;-72
2022/05/07 03:11:14;;;;;;;23.00;15.77;;;;;;;12.79;63.15;100977.31;4974456;28;20399;-73
2022/05/07 03:13:40;;;;;;;43.70;32.83;;;;;;;12.80;63.25;100989.84;4973244;28;20427;-73
2022/05/07 03:16:06;;;;;;;6.37;4.50;;;;;;;12.81;63.23;100971.63;4973237;28;20451;-73
2022/05/07 03:18:32;;;;;;;4.87;3.00;;;;;;;12.79;63.47;100988.19;4969681;28;20427;-73
2022/05/07 03:20:57;;;;;;;4.22;2.78;;;;;;;12.76;62.72;100982.41;4974622;28;20471;-72
2022/05/07 03:23:22;;;;;;;3.03;2.70;;;;;;;12.69;62.86;100982.56;4974267;28;20400;-72
2022/05/07 03:25:48;;;;;;;3.53;2.87;;;;;;;12.67;62.90;100971.13;4974192;28;20496;-73
2022/05/07 03:28:13;;;;;;;5.00;2.80;;;;;;;12.69;62.86;100974.41;4972678;28;20433;-73
2022/05/07 03:30:38;;;;;;;4.80;2.80;;;;;;;12.68;63.21;100969.25;4973717;28;20403;-72
2022/05/07 03:33:05;;;;;;;3.00;2.37;;;;;;;12.66;63.09;100974.91;4972229;28;20439;-73
2022/05/07 03:35:30;;;;;;;8.18;2.13;;;;;;;12.63;62.87;100969.13;4973914;28;20491;-72
2022/05/07 03:37:55;;;;;;;3.33;2.10;;;;;;;12.60;62.57;100972.34;4972941;28;20508;-73
2022/05/07 03:40:21;;;;;;;2.73;2.20;;;;;;;12.56;62.41;100972.00;4972815;28;20450;-72
2022/05/07 03:42:46;;;;;;;2.58;2.38;;;;;;;12.48;62.60;100970.50;4970667;28;20424;-73
2022/05/07 03:45:12;;;;;;;4.07;2.93;;;;;;;12.44;62.62;100969.38;4973862;28;20409;-73
2022/05/07 03:47:37;;;;;;;2.23;2.00;;;;;;;12.40;62.64;100975.53;4972036;28;20427;-73
2022/05/07 03:50:03;;;;;;;2.10;1.90;;;;;;;12.34;62.58;100971.06;4971446;28;20436;-72
2022/05/07 03:55:13;;;;;;;2.20;1.90;;;;;;;12.11;62.95;100980.16;4972669;28;20485;-73
2022/05/07 03:57:38;;;;;;;2.17;1.73;;;;;;;12.04;63.24;100984.91;4973515;28;20434;-73
2022/05/07 04:00:04;;;;;;;6.40;2.30;;;;;;;12.03;62.95;100990.56;4971966;28;20411;-73
2022/05/07 04:02:32;;;;;;;2.00;1.90;;;;;;;12.06;63.11;100990.91;4972313;28;20423;-72
2022/05/07 04:04:58;;;;;;;3.63;2.45;;;;;;;12.09;63.37;100985.00;4973448;28;20400;-72
2022/05/07 04:07:23;;;;;;;2.40;2.20;;;;;;;12.12;63.23;100983.72;4973146;28;20745;-73
2022/05/07 04:09:54;;;;;;;3.38;2.10;;;;;;;12.09;63.43;100985.00;4972415;28;20420;-73
2022/05/07 04:12:19;;;;;;;3.08;2.05;;;;;;;12.09;63.77;100990.41;4973365;28;20431;-73
2022/05/07 04:14:45;;;;;;;3.27;2.00;;;;;;;12.13;63.61;100988.88;4969825;28;20499;-73
2022/05/07 04:17:10;;;;;;;4.90;2.90;;;;;;;12.15;63.55;100989.44;4968550;28;20506;-73
2022/05/07 04:19:36;;;;;;;3.10;2.00;;;;;;;12.14;63.50;100993.25;4971897;28;20416;-73
2022/05/07 04:22:01;;;;;;;4.00;2.35;;;;;;;12.11;63.59;100982.03;4973229;28;20966;-72
2022/05/07 04:24:26;;;;;;;2.47;2.20;;;;;;;12.07;63.59;100987.13;4971793;28;20412;-72
2022/05/07 04:26:52;;;;;;;2.10;2.00;;;;;;;12.07;63.89;100989.03;4973284;28;20788;-73
2022/05/07 04:29:17;;;;;;;2.37;2.13;;;;;;;12.10;63.65;100988.53;4968819;28;20422;-72
2022/05/07 04:31:44;;;;;;;2.55;2.35;;;;;;;12.14;63.32;100992.44;4973171;28;20882;-72
2022/05/07 04:34:09;;;;;;;3.70;2.22;;;;;;;12.15;63.56;100994.88;4972948;28;20514;-73
2022/05/07 04:36:34;;;;;;;4.57;2.43;;;;;;;12.15;63.37;100989.44;4972720;28;21006;-72
2022/05/07 04:39:00;;;;;;;2.60;2.07;;;;;;;12.14;63.68;100990.53;4971207;28;20416;-73
2022/05/07 04:41:25;;;;;;;5.80;2.20;;;;;;;12.13;63.94;100991.59;4972113;28;20411;-73
2022/05/07 04:43:51;;;;;;;2.42;2.22;;;;;;;12.14;63.84;100992.44;4971772;28;20392;-73
2022/05/07 04:46:17;;;;;;;2.07;1.90;;;;;;;12.15;63.89;100991.38;4971330;28;20407;-72
2022/05/07 04:48:43;;;;;;;2.33;2.20;;;;;;;12.16;63.98;100998.44;4971521;28;20423;-73
2022/05/07 04:51:08;;;;;;;3.77;2.67;;;;;;;12.18;63.87;100988.16;4972891;28;20396;-73
2022/05/07 04:53:33;;;;;;;2.90;2.30;;;;;;;12.18;63.78;100989.00;4973015;28;20398;-73
2022/05/07 04:55:59;;;;;;;3.87;2.20;;;;;;;12.21;63.70;100993.94;4972655;28;20430;-72
2022/05/07 04:58:24;;;;;;;2.53;1.90;;;;;;;12.19;64.17;100990.63;4970283;28;20424;-73
2022/05/07 05:00:49;;;;;;;7.40;3.50;;;;;;;12.15;64.28;100994.88;4972092;28;20400;-72
2022/05/07 05:03:15;;;;;;;3.93;2.60;;;;;;;12.12;64.50;100995.38;4957070;28;20403;-73
2022/05/07 05:05:41;;;;;;;8.37;3.23;;;;;;;12.11;64.28;100996.47;4972503;28;20401;-73
2022/05/07 05:08:07;;;;;;;5.30;2.63;;;;;;;12.17;64.48;100998.19;4972621;28;20400;-73
2022/05/07 05:10:32;;;;;;;3.30;2.20;;;;;;;12.20;64.45;100999.59;4970712;28;20436;-73
2022/05/07 05:12:57;;;;;;;3.55;2.58;;;;;;;12.16;64.89;101003.88;4972504;28;20496;-73
2022/05/07 05:15:23;;;;;;;2.57;2.40;;;;;;;12.12;65.10;100997.28;4965377;28;20824;-73
2022/05/07 05:17:48;;;;;;;5.50;3.50;;;;;;;12.10;65.41;101002.94;4972554;28;20412;-73
2022/05/07 05:20:14;;;;;;;3.60;2.63;;;;;;;12.14;65.05;101006.00;4965865;28;20424;-72
2022/05/07 05:22:48;;;;;;;3.72;2.65;;;;;;;12.18;65.30;101005.31;4972380;28;20859;-72
2022/05/07 05:25:14;;;;;;;4.53;2.42;;;;;;;12.22;65.37;101003.72;4961190;28;20408;-72
2022/05/07 05:27:39;;;;;;;3.22;2.90;;;;;;;12.27;65.68;101009.28;4972364;28;20403;-72
2022/05/07 05:30:05;;;;;;;3.10;2.90;;;;;;;12.35;65.17;101016.19;4971056;28;20409;-72
2022/05/07 05:32:30;;;;;;;3.45;2.92;;;;;;;12.40;65.21;101005.44;4972341;28;20399;-72
2022/05/07 05:34:56;;;;;;;3.30;3.10;;;;;;;12.44;65.30;101012.03;4970744;28;20415;-72
2022/05/07 05:37:21;;;;;;;3.57;2.97;;;;;;;12.46;65.38;101016.16;4968199;28;20420;-72
2022/05/07 05:39:46;;;;;;;4.83;3.43;;;;;;;12.48;65.39;101011.28;4971960;28;20415;-72
2022/05/07 05:42:12;;;;;;;3.30;3.00;;;;;;;12.50;65.23;101016.50;4970294;28;20403;-72
2022/05/07 05:44:39;;;;;;;3.03;2.83;;;;;;;12.53;65.07;101015.16;4972062;28;20787;-72
2022/05/07 05:47:08;;;;;;;6.13;3.15;;;;;;;12.56;65.21;101022.84;4970646;28;20412;-72
2022/05/07 05:49:34;;;;;;;4.72;2.97;;;;;;;12.62;65.32;101022.69;4972216;28;20388;-72
2022/05/07 05:52:04;;;;;;;4.67;3.13;;;;;;;12.65;65.72;101024.91;4972886;28;20388;-72
2022/05/07 05:54:30;;;;;;;3.97;3.17;;;;;;;12.71;65.53;101031.28;4966464;28;20420;-72
2022/05/07 05:56:57;;;;;;;3.67;3.38;;;;;;;12.72;66.20;101028.31;4974173;28;20431;-72
2022/05/07 05:59:22;;;;;;;4.47;3.60;;;;;;;12.77;66.35;101024.88;4972067;28;20879;-72
2022/05/07 06:01:47;;;;;;;4.40;4.00;;;;;;;12.81;66.20;101026.03;4972698;28;20419;-72
2022/05/07 06:04:14;;;;;;;4.13;3.73;;;;;;;12.85;66.36;101024.44;4967364;28;20424;-72
2022/05/07 06:06:47;;;;;;;6.10;4.10;;;;;;;12.89;66.54;101028.34;4963048;28;20423;-72
2022/05/07 06:09:12;;;;;;;5.05;3.70;;;;;;;12.89;66.79;101022.88;4962506;28;20412;-72
2022/05/07 06:11:38;;;;;;;4.00;3.67;;;;;;;12.82;67.26;101017.59;4968517;28;20895;-72
2022/05/07 06:14:03;;;;;;;3.50;3.13;;;;;;;12.87;67.46;101025.88;4974651;28;20396;-72
2022/05/07 06:16:29;;;;;;;4.43;3.33;;;;;;;12.93;67.35;101026.78;4974004;28;20393;-72
2022/05/07 06:18:54;;;;;;;7.67;3.50;;;;;;;12.95;67.00;101017.28;4975540;28;20881;-73
2022/05/07 06:21:20;;;;;;;3.88;3.38;;;;;;;13.00;66.76;101030.16;4974910;28;20409;-72
2022/05/07 06:23:45;;;;;;;3.67;3.00;;;;;;;13.05;66.51;101034.84;4973783;28;20400;-72
2022/05/07 06:29:02;;;;;;;3.97;3.58;;;;;;;13.11;66.44;101023.81;4935421;28;20438;-72
2022/05/07 06:31:27;;;;;;;4.20;3.67;;;;;;;13.15;66.46;101026.88;4953905;28;20774;-73
2022/05/07 06:33:52;;;;;;;4.37;3.97;;;;;;;13.20;66.83;101037.88;4948396;28;20424;-73
2022/05/07 06:36:18;;;;;;;6.63;3.33;;;;;;;13.26;66.56;101034.13;4978567;28;20550;-73
2022/05/07 06:38:43;;;;;;;7.80;4.00;;;;;;;13.29;66.80;101037.19;4966427;28;20783;-73
2022/05/07 06:41:08;;;;;;;5.03;3.80;;;;;;;13.29;66.18;101033.66;4969565;28;20445;-74
2022/05/07 06:43:34;;;;;;;6.17;4.40;;;;;;;13.30;65.98;101038.03;4967405;28;21034;-74
2022/05/07 06:46:00;;;;;;;7.30;5.15;;;;;;;13.32;65.77;101030.41;4970081;28;20423;-73
2022/05/07 06:48:26;;;;;;;5.35;4.90;;;;;;;13.33;66.11;101032.91;4973542;28;20428;-73
2022/05/07 06:50:53;;;;;;;6.32;4.40;;;;;;;13.36;66.21;101021.53;4974686;28;20408;-74
2022/05/07 06:53:18;;;;;;;7.75;4.70;;;;;;;13.42;66.28;101036.84;4974324;28;20400;-74
2022/05/07 06:55:56;;;;;;;10.80;5.03;;;;;;;13.43;66.27;101024.91;4965695;28;20411;-74
2022/05/07 06:58:22;;;;;;;6.38;5.15;;;;;;;13.46;66.60;101032.56;4945910;28;20965;-73
2022/05/07 07:00:48;;;;;;;9.87;5.73;;;;;;;13.51;66.69;101032.63;4966986;28;20490;-74
2022/05/07 07:03:14;;;;;;;9.03;5.47;;;;;;;13.56;66.53;101034.59;4967184;28;20408;-74
2022/05/07 07:05:39;;;;;;;6.00;5.43;;;;;;;13.58;66.76;101037.06;4951353;28;20413;-73
2022/05/07 07:08:04;;;;;;;9.30;5.83;;;;;;;13.63;66.75;101032.53;4952534;28;20455;-73
2022/05/07 07:10:30;;;;;;;7.20;5.50;;;;;;;13.69;67.09;101030.69;4971666;28;20408;-74
2022/05/07 07:12:55;;;;;;;7.90;5.80;;;;;;;13.73;67.04;101035.38;4973926;28;20467;-74
2022/05/07 07:15:20;;;;;;;6.03;5.07;;;;;;;13.78;67.42;101031.91;4971792;28;20420;-74
2022/05/07 07:17:45;;;;;;;5.63;5.20;;;;;;;13.82;67.35;101031.16;4973528;28;20894;-74
2022/05/07 07:20:11;;;;;;;7.30;5.53;;;;;;;13.91;67.60;101037.81;4979915;28;20420;-74
2022/05/07 07:22:36;;;;;;;6.65;5.30;;;;;;;13.95;67.83;101029.97;4974086;28;20860;-74
2022/05/07 07:25:01;;;;;;;6.30;5.50;;;;;;;14.02;67.89;101036.03;4973858;28;20499;-74
2022/05/07 07:27:27;;;;;;;6.63;5.10;;;;;;;14.07;67.61;101033.38;4973815;28;20408;-73
2022/05/07 07:29:52;;;;;;;5.67;5.10;;;;;;;14.10;67.47;101032.84;4968897;28;20408;-74
2022/05/07 07:32:18;;;;;;;5.97;4.72;;;;;;;14.15;67.26;101029.38;4972465;28;20447;-74
2022/05/07 07:34:43;;;;;;;6.67;5.40;;;;;;;14.24;67.25;101030.56;4974055;28;20396;-74
2022/05/07 07:37:08;;;;;;;5.73;4.80;;;;;;;14.31;66.84;101031.19;4973878;28;20474;-73
2022/05/07 07:39:33;;;;;;;5.43;4.93;;;;;;;14.37;67.00;101024.75;4973554;28;20772;-74
2022/05/07 07:41:59;;;;;;;6.60;5.30;;;;;;;14.41;67.56;101024.00;4973323;28;20546;-73
2022/05/07 07:44:26;;;;;;;5.93;5.27;;;;;;;14.44;67.56;101022.66;4968024;28;20424;-73
2022/05/07 07:49:36;;;;;;;7.63;5.00;;;;;;;14.54;66.77;101029.03;4974159;28;20447;-74
2022/05/07 07:52:01;;;;;;;4.80;4.33;;;;;;;14.60;66.55;101026.34;4971704;28;20456;-72
2022/05/07 07:54:27;;;;;;;6.97;4.97;;;;;;;14.66;65.99;101028.03;4973060;28;20400;-73
2022/05/07 07:56:52;;;;;;;6.90;4.80;;;;;;;14.69;65.34;101025.63;4972232;28;20428;-73
2022/05/07 07:59:17;;;;;;;5.17;4.60;;;;;;;14.75;64.57;101021.84;4961945;28;20442;-73
2022/05/07 08:01:42;;;;;;;5.77;4.30;;;;;;;14.82;63.98;101025.22;4969390;28;20460;-72
2022/05/07 08:04:09;;;;;;;5.67;4.53;;;;;;;14.88;63.89;101029.66;4966179;28;20444;-73
2022/05/07 08:06:34;;;;;;;6.78;5.00;;;;;;;14.94;63.47;101025.06;4956435;28;20404;-73
2022/05/07 08:11:47;;;;;;;6.70;4.47;;;;;;;15.11;62.34;101016.72;4966947;28;21068;-73
2022/05/07 08:14:15;;;;;;;4.82;4.20;;;;;;;15.17;61.17;101019.25;4970688;28;20423;-73
2022/05/07 08:16:42;;;;;;;3.63;2.95;;;;;;;15.20;61.15;101023.34;4972247;28;20419;-73
2022/05/07 08:19:07;;;;;;;4.60;3.60;;;;;;;15.26;60.29;101020.41;4964852;28;20416;-73
2022/05/07 08:21:33;;;;;;;4.60;3.47;;;;;;;15.33;60.03;101017.44;4968617;28;20411;-73
2022/05/07 08:23:59;;;;;;;5.27;3.80;;;;;;;15.40;59.67;101012.56;4963085;28;20415;-73
2022/05/07 08:26:24;;;;;;;4.45;3.30;;;;;;;15.44;59.31;101016.44;4972345;28;20415;-73
2022/05/07 08:28:53;;;;;;;7.07;3.37;;;;;;;15.49;59.77;101011.84;4973037;28;20908;-73
2022/05/07 08:31:21;;;;;;;5.28;3.30;;;;;;;15.55;59.03;101016.25;4972992;28;20432;-72
2022/05/07 08:33:47;;;;;;;3.65;2.92;;;;;;;15.67;58.16;101015.22;4971429;28;20495;-73
2022/05/07 08:36:13;;;;;;;3.88;3.33;;;;;;;15.67;58.00;101009.75;4972700;28;20392;-73
2022/05/07 08:38:39;;;;;;;5.73;3.50;;;;;;;15.67;58.33;101015.22;4966435;28;21027;-73
2022/05/07 08:41:05;;;;;;;4.72;3.00;;;;;;;15.71;58.02;101017.16;4967159;28;20772;-73
2022/05/07 08:43:38;;;;;;;3.73;3.43;;;;;;;15.89;57.31;101013.16;4970366;28;20513;-72
2022/05/07 08:46:08;;;;;;;4.13;3.10;;;;;;;15.95;57.19;101009.34;4969102;28;20427;-73
2022/05/07 08:48:33;;;;;;;3.43;2.70;;;;;;;16.02;57.43;101007.19;4964264;28;20782;-73
2022/05/07 08:51:00;;;;;;;3.80;2.80;;;;;;;16.09;57.30;101002.31;4971385;28;20408;-73
2022/05/07 08:53:25;;;;;;;5.88;2.75;;;;;;;16.16;57.14;101002.06;4969488;28;20415;-73
2022/05/07 08:55:54;;;;;;;6.05;2.53;;;;;;;16.28;56.04;101011.66;4969537;28;20415;-73
2022/05/07 08:58:19;;;;;;;3.57;2.57;;;;;;;16.38;55.77;101008.94;4968456;28;20420;-73
2022/05/07 09:00:45;;;;;;;5.33;2.70;;;;;;;16.48;55.31;100997.19;4965913;28;20416;-73
2022/05/07 09:03:15;;;;;;;2.87;2.53;;;;;;;16.59;55.36;100997.00;4965790;28;20886;-73
2022/05/07 09:05:41;;;;;;;6.35;3.10;;;;;;;16.71;54.18;101004.09;4963901;28;20432;-73
2022/05/07 09:08:08;;;;;;;4.00;2.70;;;;;;;16.79;54.69;101000.84;4967083;28;20934;-73
2022/05/07 09:10:35;;;;;;;3.20;2.33;;;;;;;16.88;55.17;100997.28;4971424;28;20412;-73
2022/05/07 09:13:13;;;;;;;2.65;2.38;;;;;;;17.03;54.21;100990.97;4959954;28;20498;-73
2022/05/07 09:15:57;;;;;;;4.07;2.30;;;;;;;17.23;53.78;100996.44;4961081;28;20419;-74
2022/05/07 09:18:26;;;;;;;2.45;2.25;;;;;;;17.42;52.61;100993.97;4969051;28;20482;-73
2022/05/07 09:21:24;;;;;;;2.45;2.20;;;;;;;17.57;52.43;100991.22;4963439;28;20420;-73
2022/05/07 09:23:55;;;;;;;2.20;2.10;;;;;;;17.75;52.17;100998.03;4982828;28;20494;-74
2022/05/07 09:26:36;;;;;;;2.58;1.88;;;;;;;17.86;51.32;100996.88;4969894;28;20919;-73
2022/05/07 09:29:03;;;;;;;2.30;2.03;;;;;;;17.95;50.26;100989.69;4964082;28;20428;-74
2022/05/07 09:31:30;;;;;;;1.95;1.65;;;;;;;18.11;50.31;100992.09;4970266;28;20771;-74
2022/05/07 09:35:47;;;;;;;3.73;2.27;;;;;;;18.31;49.95;100985.66;4967875;28;20416;-73
2022/05/07 09:36:41;;;;;;;3.58;1.92;;;;;;;18.42;49.50;100976.28;4974275;28;20906;-74
2022/05/07 09:39:07;;;;;;;4.35;1.80;;;;;;;18.57;49.41;100970.72;4974229;28;20499;-74
2022/05/07 09:41:32;;;;;;;3.07;1.60;;;;;;;18.77;49.21;100974.44;4969335;28;21074;-74
2022/05/07 09:43:58;;;;;;;4.70;1.73;;;;;;;19.04;48.76;100981.03;4968284;28;20911;-76
2022/05/07 09:46:23;;;;;;;3.25;1.77;;;;;;;19.30;49.33;100972.59;4971493;28;20416;-74
2022/05/07 09:48:49;;;;;;;2.60;1.40;;;;;;;19.47;47.28;100972.97;4971876;28;20427;-74
2022/05/07 09:51:16;;;;;;;3.85;2.00;;;;;;;20.04;48.01;100974.75;4973927;28;20423;-74
2022/05/07 09:59:12;;;;;;;2.53;1.30;;;;;;;22.97;41.86;100975.56;4972046;28;20424;-74
2022/05/07 10:01:55;;;;;;;7.20;1.60;;;;;;;23.88;38.47;100970.34;4975367;28;20397;-74
2022/05/07 10:04:32;;;;;;;2.35;1.55;;;;;;;24.53;37.83;100973.09;4966421;28;20412;-74
2022/05/07 10:07:06;;;;;;;2.20;1.63;;;;;;;24.84;36.82;100978.47;4971359;28;20864;-74
2022/05/07 10:09:56;;;;;;;2.17;1.30;;;;;;;25.48;36.80;100971.00;4975088;28;20404;-74
2022/05/07 10:12:24;;;;;;;1.27;1.17;;;;;;;26.05;34.62;100967.81;4974169;28;20531;-74
2022/05/07 10:14:49;;;;;;;1.50;1.40;;;;;;;25.91;33.86;100967.25;4974605;28;20415;-74
2022/05/07 10:17:15;;;;;;;2.63;1.50;;;;;;;26.24;32.72;100954.31;4967819;28;20830;-75
2022/05/07 10:19:45;;;;;;;8.38;1.42;;;;;;;26.49;31.28;100958.84;4969972;28;20404;-75
2022/05/07 10:22:23;;;;;;;1.20;1.02;;;;;;;26.30;29.65;100966.84;4972741;28;20981;-73
2022/05/07 10:25:03;;;;;;;2.70;1.30;;;;;;;25.15;31.21;100959.69;4968525;28;20422;-73
2022/05/07 10:27:39;;;;;;;2.25;1.08;;;;;;;24.94;32.06;100949.59;4968714;28;20420;-72
2022/05/07 10:30:22;;;;;;;1.27;0.93;;;;;;;26.51;31.03;100953.75;4975020;28;20756;-73
2022/05/07 10:32:53;;;;;;;3.30;1.30;;;;;;;27.94;29.22;100955.66;4968211;28;20424;-73
2022/05/07 10:35:44;;;;;;;1.80;0.90;;;;;;;28.62;26.98;100958.53;4972704;28;20443;-73
2022/05/07 10:38:26;;;;;;;1.15;0.95;;;;;;;29.22;26.67;100952.72;4974517;28;20416;-73
2022/05/07 10:40:56;;;;;;;1.23;1.00;;;;;;;29.16;26.15;100958.91;4969632;28;20487;-73
2022/05/07 10:43:33;;;;;;;2.35;1.33;;;;;;;29.22;26.68;100947.13;4971418;28;20439;-73
2022/05/07 10:46:03;;;;;;;9.25;1.90;;;;;;;28.69;26.85;100953.22;4975123;28;20392;-73
2022/05/07 10:48:29;;;;;;;5.75;1.10;;;;;;;29.33;25.80;100953.03;4975067;28;20771;-73
2022/05/07 10:51:00;;;;;;;1.80;1.30;;;;;;;29.57;25.79;100947.28;4974921;28;20400;-73
2022/05/07 10:53:36;;;;;;;2.17;1.30;;;;;;;27.84;27.23;100944.97;4974339;28;20759;-73
2022/05/07 10:56:02;;;;;;;2.97;1.85;;;;;;;26.29;29.10;100943.81;4974324;28;20901;-73
2022/05/07 10:58:30;;;;;;;1.83;1.30;;;;;;;25.56;30.33;100942.41;4974476;28;20535;-73
2022/05/07 11:00:57;;;;;;;2.53;1.00;;;;;;;27.06;29.04;100942.31;4969784;28;20415;-73
2022/05/07 11:03:27;;;;;;;2.57;1.10;;;;;;;27.72;26.97;100942.22;4974300;28;20405;-73
2022/05/07 11:05:58;;;;;;;3.80;1.20;;;;;;;27.03;27.87;100929.09;4974617;28;20441;-73
2022/05/07 11:08:24;;;;;;;3.13;0.93;;;;;;;28.08;27.10;100935.81;4974478;28;20416;-74
2022/05/07 11:10:50;;;;;;;1.33;1.23;;;;;;;28.05;27.07;100926.16;4969476;28;20784;-73
2022/05/07 11:13:19;;;;;;;4.03;1.70;;;;;;;26.86;28.25;100928.47;4973608;28;20775;-73
2022/05/07 11:15:50;;;;;;;2.47;1.40;;;;;;;27.46;27.77;100933.38;4974455;28;20492;-73
2022/05/07 11:18:16;;;;;;;1.98;1.05;;;;;;;27.82;27.12;100923.06;4968785;28;20855;-73
2022/05/07 11:20:46;;;;;;;2.00;1.30;;;;;;;28.06;26.73;100930.59;4974104;28;20411;-73
2022/05/07 11:23:13;;;;;;;1.27;0.80;;;;;;;28.80;25.59;100920.84;4973798;28;20463;-73
2022/05/07 11:25:40;;;;;;;0.68;0.68;;;;;;;29.24;24.93;100916.84;4972907;28;20856;-73
2022/05/07 11:28:05;;;;;;;7.32;1.17;;;;;;;29.09;24.23;100917.66;4974189;28;20432;-73
2022/05/07 11:30:31;;;;;;;2.50;1.30;;;;;;;29.06;24.14;100918.38;4974152;28;20431;-71
2022/05/07 11:33:04;;;;;;;2.15;0.75;;;;;;;28.94;23.68;100914.88;4973456;28;20424;-71
2022/05/07 11:35:29;;;;;;;0.93;0.82;;;;;;;29.05;25.50;100911.19;4971372;28;20412;-71
2022/05/07 11:37:54;;;;;;;2.00;1.20;;;;;;;29.14;24.67;100911.84;4967681;28;20417;-72
2022/05/07 11:40:29;;;;;;;2.47;1.17;;;;;;;29.18;24.78;100907.13;4972492;28;20451;-72
2022/05/07 11:45:40;;;;;;;0.88;0.85;;;;;;;28.99;24.61;100897.84;4962241;28;20419;-72